createdAt,value
2022-10-18T00:00:58.165Z,12.57
2022-10-18T00:03:26.452Z,12.55
2022-10-18T00:05:54.728Z,12.57
2022-10-18T00:08:22.668Z,12.52
2022-10-18T00:10:50.965Z,12.53
2022-10-18T00:13:20.935Z,12.49
2022-10-18T00:15:53.188Z,12.47
2022-10-18T00:18:21.671Z,12.45
2022-10-18T00:20:58.348Z,12.44
2022-10-18T00:23:27.664Z,12.43
2022-10-18T00:26:03.854Z,12.41
2022-10-18T00:28:33.497Z,12.37
2022-10-18T00:31:11.911Z,12.39
2022-10-18T00:33:40.838Z,12.36
2022-10-18T00:36:09.202Z,12.37
2022-10-18T00:38:38.133Z,12.35
2022-10-18T00:41:07.707Z,12.35
2022-10-18T00:43:59.308Z,12.30
2022-10-18T00:46:29.039Z,12.28
2022-10-18T00:48:58.519Z,12.26
2022-10-18T00:51:32.035Z,12.30
2022-10-18T00:53:59.999Z,12.33
2022-10-18T00:56:28.122Z,12.33
2022-10-18T00:58:58.783Z,12.34
2022-10-18T01:01:28.435Z,12.30
2022-10-18T01:03:57.176Z,12.30
2022-10-18T01:06:26.065Z,12.31
2022-10-18T01:09:11.585Z,12.35
2022-10-18T01:12:14.764Z,12.36
2022-10-18T01:14:53.887Z,12.35
2022-10-18T01:17:27.075Z,12.40
2022-10-18T01:20:17.972Z,12.40
2022-10-18T01:22:49.739Z,12.42
2022-10-18T01:25:31.376Z,12.46
2022-10-18T01:28:09.670Z,12.47
2022-10-18T01:30:47.478Z,12.48
2022-10-18T01:33:24.522Z,12.51
2022-10-18T01:35:57.860Z,12.54
2022-10-18T01:38:27.389Z,12.57
2022-10-18T01:40:57.698Z,12.58
2022-10-18T01:43:27.609Z,12.62
2022-10-18T01:45:59.763Z,12.62
2022-10-18T01:48:29.123Z,12.64
2022-10-18T01:50:57.224Z,12.67
2022-10-18T01:53:31.360Z,12.72
2022-10-18T01:56:23.488Z,12.71
2022-10-18T01:59:03.680Z,12.75
2022-10-18T02:01:43.081Z,12.78
2022-10-18T02:04:21.767Z,12.78
2022-10-18T02:06:56.603Z,12.82
2022-10-18T02:09:34.801Z,12.88
2022-10-18T02:12:04.458Z,12.88
2022-10-18T02:14:34.117Z,12.89
2022-10-18T02:17:07.768Z,12.92
2022-10-18T02:19:39.687Z,12.97
2022-10-18T02:22:09.685Z,12.96
2022-10-18T02:24:40.437Z,12.98
2022-10-18T02:27:08.963Z,13.03
2022-10-18T02:29:37.423Z,13.03
2022-10-18T02:32:12.907Z,13.06
2022-10-18T02:34:44.502Z,13.10
2022-10-18T02:37:13.032Z,13.14
2022-10-18T02:39:46.397Z,13.16
2022-10-18T02:42:15.463Z,13.17
2022-10-18T02:44:43.713Z,13.19
2022-10-18T02:47:13.646Z,13.22
2022-10-18T02:49:41.628Z,13.22
2022-10-18T02:52:09.586Z,13.24
2022-10-18T02:54:37.466Z,13.21
2022-10-18T02:57:05.526Z,13.22
2022-10-18T02:59:33.488Z,13.22
2022-10-18T03:02:01.411Z,13.23
2022-10-18T03:04:30.715Z,13.25
2022-10-18T03:06:58.719Z,13.23
2022-10-18T03:09:26.769Z,13.23
2022-10-18T03:11:54.729Z,13.20
2022-10-18T03:14:22.632Z,13.20
2022-10-18T03:16:50.564Z,13.18
2022-10-18T03:19:18.808Z,13.21
2022-10-18T03:21:48.151Z,13.19
2022-10-18T03:24:16.477Z,13.20
2022-10-18T03:26:44.355Z,13.21
2022-10-18T03:29:12.442Z,13.22
2022-10-18T03:31:40.577Z,13.21
2022-10-18T03:34:08.504Z,13.25
2022-10-18T03:36:38.468Z,13.25
2022-10-18T03:39:07.741Z,13.22
2022-10-18T03:41:35.710Z,13.18
2022-10-18T03:44:03.689Z,13.15
2022-10-18T03:46:31.669Z,13.12
2022-10-18T03:48:59.648Z,13.09
2022-10-18T03:51:27.567Z,13.05
2022-10-18T03:53:55.951Z,13.01
2022-10-18T03:56:25.244Z,13.00
2022-10-18T03:58:53.172Z,12.97
2022-10-18T04:01:21.537Z,12.95
2022-10-18T04:03:49.689Z,12.99
2022-10-18T04:06:17.600Z,12.96
2022-10-18T04:08:45.495Z,12.95
2022-10-18T04:11:13.427Z,12.93
2022-10-18T04:13:42.717Z,12.85
2022-10-18T04:16:10.614Z,12.85
2022-10-18T04:18:38.650Z,12.81
2022-10-18T04:21:06.832Z,12.80
2022-10-18T04:23:37.918Z,12.75
2022-10-18T04:26:07.222Z,12.77
2022-10-18T04:28:39.887Z,12.78
2022-10-18T04:31:09.548Z,12.78
2022-10-18T04:33:37.724Z,12.81
2022-10-18T04:36:06.852Z,12.80
2022-10-18T04:38:35.299Z,12.79
2022-10-18T04:41:03.391Z,12.79
2022-10-18T04:43:31.458Z,12.75
2022-10-18T04:45:59.435Z,12.72
2022-10-18T04:48:28.838Z,12.76
2022-10-18T04:50:56.888Z,12.78
2022-10-18T04:53:24.787Z,12.81
2022-10-18T04:55:52.746Z,12.79
2022-10-18T04:58:20.919Z,12.82
2022-10-18T05:00:48.972Z,12.81
2022-10-18T05:03:17.380Z,12.81
2022-10-18T05:06:03.163Z,12.81
2022-10-18T05:08:32.167Z,12.78
2022-10-18T05:11:00.145Z,12.82
2022-10-18T05:13:28.264Z,12.81
2022-10-18T05:15:56.276Z,12.80
2022-10-18T05:18:24.262Z,12.77
2022-10-18T05:20:53.480Z,12.77
2022-10-18T05:23:21.435Z,12.73
2022-10-18T05:25:49.656Z,12.71
2022-10-18T05:28:47.695Z,12.67
2022-10-18T05:31:07.394Z,12.64
2022-10-18T05:33:35.944Z,12.61
2022-10-18T05:36:05.634Z,12.59
2022-10-18T05:38:33.694Z,12.55
2022-10-18T05:41:05.713Z,12.53
2022-10-18T05:43:33.697Z,12.51
2022-10-18T05:46:01.660Z,12.51
2022-10-18T05:48:29.561Z,12.45
2022-10-18T05:51:00.099Z,12.47
2022-10-18T05:53:38.069Z,12.42
2022-10-18T05:56:07.173Z,12.44
2022-10-18T05:58:35.754Z,12.40
2022-10-18T06:01:05.831Z,12.39
2022-10-18T06:03:34.698Z,12.41
2022-10-18T06:06:03.665Z,12.43
2022-10-18T06:08:33.520Z,12.45
2022-10-18T06:11:06.688Z,12.47
2022-10-18T06:13:34.859Z,12.55
2022-10-18T06:16:02.720Z,12.56
2022-10-18T06:18:30.689Z,12.60
2022-10-18T06:20:59.405Z,12.69
2022-10-18T06:23:27.660Z,12.76
2022-10-18T06:26:00.138Z,12.82
2022-10-18T06:28:28.958Z,12.86
2022-10-18T06:30:58.268Z,12.91
2022-10-18T06:33:26.494Z,12.93
2022-10-18T06:35:59.186Z,13.00
2022-10-18T06:38:27.833Z,13.03
2022-10-18T06:40:59.105Z,13.08
2022-10-18T06:43:27.697Z,13.11
2022-10-18T06:45:56.167Z,13.15
2022-10-18T06:48:25.192Z,13.19
2022-10-18T06:50:55.370Z,13.22
2022-10-18T06:53:23.319Z,13.27
2022-10-18T06:55:51.327Z,13.32
2022-10-18T06:58:20.576Z,13.35
2022-10-18T07:00:48.423Z,13.42
2022-10-18T07:03:16.373Z,13.48
2022-10-18T07:05:44.303Z,13.51
2022-10-18T07:08:12.189Z,13.56
2022-10-18T07:10:40.101Z,13.60
2022-10-18T07:13:30.757Z,13.64
2022-10-18T07:16:11.523Z,13.69
2022-10-18T07:18:43.814Z,13.71
2022-10-18T07:21:14.363Z,13.76
2022-10-18T07:23:44.131Z,13.83
2022-10-18T07:26:14.482Z,13.91
2022-10-18T07:28:42.684Z,13.96
2022-10-18T07:31:13.082Z,14.04
2022-10-18T07:33:42.964Z,14.05
2022-10-18T07:36:12.254Z,14.09
2022-10-18T07:38:40.664Z,14.14
2022-10-18T07:41:11.614Z,14.24
2022-10-18T07:43:43.035Z,14.30
2022-10-18T07:46:12.562Z,14.37
2022-10-18T07:48:40.638Z,14.45
2022-10-18T07:51:09.013Z,14.51
2022-10-18T07:53:37.622Z,14.58
2022-10-18T07:56:09.501Z,14.63
2022-10-18T07:58:38.155Z,14.67
2022-10-18T08:01:08.166Z,14.73
2022-10-18T08:03:38.734Z,14.76
2022-10-18T08:06:09.538Z,14.79
2022-10-18T08:08:38.483Z,14.83
2022-10-18T08:11:09.108Z,14.89
2022-10-18T08:13:37.291Z,14.91
2022-10-18T08:16:07.643Z,14.98
2022-10-18T08:18:37.573Z,15.01
2022-10-18T08:21:07.261Z,15.09
2022-10-18T08:23:35.732Z,15.15
2022-10-18T08:26:04.761Z,15.24
2022-10-18T08:28:32.777Z,15.31
2022-10-18T08:31:04.448Z,15.35
2022-10-18T08:33:32.671Z,15.41
2022-10-18T08:36:05.731Z,15.43
2022-10-18T08:38:54.472Z,15.47
2022-10-18T08:41:51.584Z,15.58
2022-10-18T08:44:23.879Z,15.69
2022-10-18T08:46:56.499Z,15.72
2022-10-18T08:49:30.347Z,15.72
2022-10-18T08:52:00.060Z,15.82
2022-10-18T08:54:35.956Z,15.93
2022-10-18T08:57:11.300Z,16.00
2022-10-18T08:59:40.286Z,16.02
2022-10-18T09:02:20.188Z,16.12
2022-10-18T09:04:53.370Z,16.23
2022-10-18T09:07:59.076Z,16.31
2022-10-18T09:10:41.557Z,16.43
2022-10-18T09:13:25.820Z,16.49
2022-10-18T09:15:58.150Z,16.61
2022-10-18T09:18:42.552Z,16.62
2022-10-18T09:21:20.163Z,16.81
2022-10-18T09:23:51.473Z,16.80
2022-10-18T09:26:21.506Z,16.80
2022-10-18T09:29:02.207Z,16.78
2022-10-18T09:31:42.008Z,16.82
2022-10-18T09:34:20.228Z,16.83
2022-10-18T09:36:52.373Z,16.89
2022-10-18T09:39:24.779Z,16.93
2022-10-18T09:41:58.499Z,16.95
2022-10-18T09:44:28.476Z,16.93
2022-10-18T09:47:03.567Z,17.00
2022-10-18T09:49:35.331Z,17.13
2022-10-18T09:52:09.008Z,17.17
2022-10-18T09:54:43.966Z,17.22
2022-10-18T09:57:19.405Z,17.27
2022-10-18T09:59:49.804Z,17.35
2022-10-18T10:02:19.523Z,17.45
2022-10-18T10:04:47.510Z,17.54
2022-10-18T10:07:19.245Z,17.67
2022-10-18T10:09:50.343Z,17.82
2022-10-18T10:12:29.932Z,17.87
2022-10-18T10:15:09.604Z,17.95
2022-10-18T10:17:37.837Z,17.96
2022-10-18T10:20:16.015Z,18.05
2022-10-18T10:22:47.540Z,18.00
2022-10-18T10:25:29.732Z,18.00
2022-10-18T10:28:04.273Z,17.93
2022-10-18T10:30:34.058Z,17.88
2022-10-18T10:33:02.616Z,17.85
2022-10-18T10:35:52.648Z,17.80
2022-10-18T10:38:26.162Z,17.81
2022-10-18T10:40:55.651Z,17.84
2022-10-18T10:43:42.557Z,17.86
2022-10-18T10:46:13.283Z,17.80
2022-10-18T10:48:48.403Z,17.78
2022-10-18T10:51:19.846Z,17.79
2022-10-18T10:53:52.255Z,17.82
2022-10-18T10:56:27.903Z,17.83
2022-10-18T10:58:57.972Z,17.84
2022-10-18T11:01:29.468Z,17.87
2022-10-18T11:03:59.938Z,17.95
2022-10-18T11:06:46.068Z,17.98
2022-10-18T11:09:25.468Z,17.97
2022-10-18T11:12:02.698Z,17.98
2022-10-18T11:14:37.328Z,18.03
2022-10-18T11:17:13.929Z,18.12
2022-10-18T11:19:53.790Z,18.26
2022-10-18T11:22:26.628Z,18.30
2022-10-18T11:24:54.645Z,18.36
2022-10-18T11:27:28.939Z,18.47
2022-10-18T11:30:19.423Z,18.68
2022-10-18T11:32:59.516Z,18.68
2022-10-18T11:35:40.507Z,18.76
2022-10-18T11:38:23.855Z,18.68
2022-10-18T11:41:03.906Z,18.74
2022-10-18T11:44:01.263Z,18.72
2022-10-18T11:46:40.844Z,18.82
2022-10-18T11:49:33.205Z,18.92
2022-10-18T11:52:10.444Z,18.95
2022-10-18T11:54:51.876Z,19.00
2022-10-18T11:57:40.932Z,19.03
2022-10-18T12:00:24.831Z,19.11
2022-10-18T12:03:28.435Z,19.14
2022-10-18T12:05:59.147Z,19.07
2022-10-18T12:08:32.823Z,18.98
2022-10-18T12:11:07.269Z,18.99
2022-10-18T12:13:40.465Z,19.01
2022-10-18T12:16:11.859Z,19.05
2022-10-18T12:18:49.398Z,19.00
2022-10-18T12:21:25.365Z,18.97
2022-10-18T12:23:56.757Z,18.94
2022-10-18T12:26:25.738Z,18.93
2022-10-18T12:29:01.684Z,18.92
2022-10-18T12:31:37.854Z,18.99
2022-10-18T12:34:23.917Z,18.95
2022-10-18T12:39:43.850Z,18.80
2022-10-18T12:42:28.711Z,18.78
2022-10-18T12:45:03.628Z,18.79
2022-10-18T12:47:33.587Z,18.89
2022-10-18T12:50:04.198Z,18.96
2022-10-18T12:52:34.567Z,19.05
2022-10-18T12:55:07.719Z,19.04
2022-10-18T12:58:03.290Z,19.06
2022-10-18T13:00:53.500Z,19.07
2022-10-18T13:03:42.976Z,19.04
2022-10-18T13:06:10.924Z,19.04
2022-10-18T13:08:42.104Z,18.98
2022-10-18T13:11:30.009Z,18.96
2022-10-18T13:14:34.795Z,18.91
2022-10-18T13:17:13.568Z,18.92
2022-10-18T13:20:23.884Z,18.91
2022-10-18T13:23:02.396Z,18.89
2022-10-18T13:25:40.227Z,18.86
2022-10-18T13:28:32.164Z,18.87
2022-10-18T13:31:15.173Z,18.83
2022-10-18T13:33:43.567Z,18.82
2022-10-18T13:36:25.253Z,18.76
2022-10-18T13:39:20.085Z,18.71
2022-10-18T13:42:21.853Z,18.71
2022-10-18T13:44:49.860Z,18.68
2022-10-18T13:47:34.775Z,18.66
2022-10-18T13:53:47.333Z,18.59
2022-10-18T13:56:39.430Z,18.58
2022-10-18T13:59:25.367Z,18.57
2022-10-18T14:02:13.882Z,18.59
2022-10-18T14:05:17.024Z,18.61
2022-10-18T14:07:51.377Z,18.63
2022-10-18T14:10:43.278Z,18.65
2022-10-18T14:13:21.168Z,18.67
2022-10-18T14:15:52.797Z,18.69
2022-10-18T14:18:27.936Z,18.73
2022-10-18T14:21:21.978Z,18.75
2022-10-18T14:23:51.955Z,18.74
2022-10-18T14:26:22.900Z,18.72
2022-10-18T14:29:03.982Z,18.72
2022-10-18T14:31:32.296Z,18.72
2022-10-18T14:34:01.889Z,18.70
2022-10-18T14:36:37.298Z,18.67
2022-10-18T14:39:09.081Z,18.68
2022-10-18T14:41:48.408Z,18.69
2022-10-18T14:44:21.184Z,18.64
2022-10-18T14:46:50.881Z,18.62
2022-10-18T14:49:20.236Z,18.58
2022-10-18T14:51:51.212Z,18.59
2022-10-18T14:54:22.959Z,18.61
2022-10-18T14:56:54.867Z,18.62
2022-10-18T14:59:25.602Z,18.62
2022-10-18T15:01:59.474Z,18.61
2022-10-18T15:04:32.824Z,18.57
2022-10-18T15:07:03.130Z,18.59
2022-10-18T15:09:34.079Z,18.56
2022-10-18T15:12:04.692Z,18.55
2022-10-18T15:14:33.230Z,18.54
2022-10-18T15:17:04.531Z,18.54
2022-10-18T15:19:35.667Z,18.52
2022-10-18T15:22:31.440Z,18.51
2022-10-18T15:25:27.867Z,18.48
2022-10-18T15:28:00.310Z,18.45
2022-10-18T15:30:31.275Z,18.41
2022-10-18T15:33:00.815Z,18.38
2022-10-18T15:35:31.756Z,18.33
2022-10-18T15:38:02.526Z,18.30
2022-10-18T15:40:34.059Z,18.23
2022-10-18T15:43:06.701Z,18.21
2022-10-18T15:45:38.531Z,18.17
2022-10-18T15:48:21.621Z,18.12
2022-10-18T15:50:51.901Z,18.12
2022-10-18T15:53:36.475Z,18.08
2022-10-18T15:56:07.578Z,18.00
2022-10-18T15:58:45.283Z,18.01
2022-10-18T16:01:18.167Z,17.93
2022-10-18T16:03:47.489Z,17.95
2022-10-18T16:06:18.260Z,17.91
2022-10-18T16:08:48.605Z,17.88
2022-10-18T16:11:18.219Z,17.80
2022-10-18T16:13:48.366Z,17.79
2022-10-18T16:16:19.252Z,17.74
2022-10-18T16:18:47.405Z,17.70
2022-10-18T16:21:19.307Z,17.68
2022-10-18T16:23:49.397Z,17.63
2022-10-18T16:26:18.392Z,17.57
2022-10-18T16:28:48.462Z,17.53
2022-10-18T16:31:18.681Z,17.52
2022-10-18T16:33:47.563Z,17.45
2022-10-18T16:36:16.621Z,17.43
2022-10-18T16:38:45.482Z,17.41
2022-10-18T16:41:15.834Z,17.35
2022-10-18T16:43:45.108Z,17.32
2022-10-18T16:46:17.972Z,17.25
2022-10-18T16:48:47.308Z,17.23
2022-10-18T16:51:15.431Z,17.17
2022-10-18T16:53:44.036Z,17.15
2022-10-18T16:56:15.675Z,17.10
2022-10-18T16:58:43.768Z,17.11
2022-10-18T17:01:13.188Z,17.09
2022-10-18T17:03:42.511Z,17.05
2022-10-18T17:06:16.153Z,17.01
2022-10-18T17:08:44.512Z,17.01
2022-10-18T17:11:14.378Z,16.99
2022-10-18T17:13:42.582Z,16.92
2022-10-18T17:16:22.553Z,16.91
2022-10-18T17:18:52.111Z,16.88
2022-10-18T17:21:20.037Z,16.81
2022-10-18T17:23:48.001Z,16.79
2022-10-18T17:26:28.549Z,16.78
2022-10-18T17:28:59.522Z,16.75
2022-10-18T17:31:27.514Z,16.69
2022-10-18T17:33:58.412Z,16.66
2022-10-18T17:36:26.901Z,16.62
2022-10-18T17:38:56.038Z,16.56
2022-10-18T17:41:23.939Z,16.55
2022-10-18T17:43:51.867Z,16.52
2022-10-18T17:46:20.259Z,16.52
2022-10-18T17:48:48.296Z,16.47
2022-10-18T17:51:18.847Z,16.41
2022-10-18T17:53:46.848Z,16.39
2022-10-18T17:56:15.478Z,16.36
2022-10-18T17:58:44.291Z,16.33
2022-10-18T18:01:13.592Z,16.31
2022-10-18T18:03:41.956Z,16.29
2022-10-18T18:06:19.128Z,16.24
2022-10-18T18:08:48.197Z,16.23
2022-10-18T18:11:16.949Z,16.19
2022-10-18T18:13:45.003Z,16.16
2022-10-18T18:16:14.852Z,16.12
2022-10-18T18:18:43.720Z,16.12
2022-10-18T18:21:11.753Z,16.09
2022-10-18T18:23:41.546Z,16.05
2022-10-18T18:26:09.483Z,16.04
2022-10-18T18:28:38.090Z,16.00
2022-10-18T18:31:07.863Z,15.96
2022-10-18T18:33:35.914Z,15.87
2022-10-18T18:36:04.870Z,15.79
2022-10-18T18:38:33.811Z,15.74
2022-10-18T18:41:07.798Z,15.66
2022-10-18T18:43:36.659Z,15.60
2022-10-18T18:46:05.787Z,15.57
2022-10-18T18:48:35.615Z,15.56
2022-10-18T18:51:05.067Z,15.50
2022-10-18T18:53:33.201Z,15.49
2022-10-18T18:56:06.996Z,15.43
2022-10-18T18:58:36.260Z,15.37
2022-10-18T19:01:08.183Z,15.34
2022-10-18T19:03:38.282Z,15.27
2022-10-18T19:06:07.946Z,15.24
2022-10-18T19:08:37.506Z,15.18
2022-10-18T19:11:09.425Z,15.08
2022-10-18T19:13:37.704Z,15.02
2022-10-18T19:16:19.633Z,14.96
2022-10-18T19:21:44.946Z,14.83
2022-10-18T19:24:13.763Z,14.83
2022-10-18T19:26:45.540Z,14.79
2022-10-18T19:29:14.893Z,14.78
2022-10-18T19:31:43.190Z,14.75
2022-10-18T19:34:13.273Z,14.71
2022-10-18T19:36:42.539Z,14.68
2022-10-18T19:39:15.515Z,14.56
2022-10-18T19:41:44.973Z,14.51
2022-10-18T19:44:13.038Z,14.51
2022-10-18T19:46:40.911Z,14.47
2022-10-18T19:49:08.932Z,14.41
2022-10-18T19:51:37.042Z,14.34
2022-10-18T19:54:05.190Z,14.33
2022-10-18T19:56:33.740Z,14.27
2022-10-18T19:59:03.080Z,14.24
2022-10-18T20:01:31.124Z,14.20
2022-10-18T20:03:59.556Z,14.19
2022-10-18T20:06:28.016Z,14.20
2022-10-18T20:08:56.350Z,14.16
2022-10-18T20:11:26.126Z,14.11
2022-10-18T20:13:54.310Z,14.07
2022-10-18T20:16:28.069Z,14.06
2022-10-18T20:18:57.883Z,14.06
2022-10-18T20:21:27.153Z,14.05
2022-10-18T20:23:55.427Z,14.01
2022-10-18T20:26:25.405Z,13.96
2022-10-18T20:28:56.832Z,13.91
2022-10-18T20:31:27.914Z,13.86
2022-10-18T20:33:57.787Z,13.84
2022-10-18T20:36:27.583Z,13.83
2022-10-18T20:38:55.991Z,13.82
2022-10-18T20:41:26.292Z,13.78
2022-10-18T20:43:55.713Z,13.72
2022-10-18T20:46:24.239Z,13.70
2022-10-18T20:48:54.712Z,13.63
2022-10-18T20:51:23.484Z,13.63
2022-10-18T20:53:51.738Z,13.60
2022-10-18T20:56:22.139Z,13.57
2022-10-18T20:58:51.594Z,13.56
2022-10-18T21:01:21.443Z,13.55
2022-10-18T21:03:51.564Z,13.53
2022-10-18T21:06:22.790Z,13.50
2022-10-18T21:08:54.521Z,13.48
2022-10-18T21:11:22.965Z,13.43
2022-10-18T21:13:52.453Z,13.41
2022-10-18T21:16:20.408Z,13.40
2022-10-18T21:18:48.634Z,13.36
2022-10-18T21:21:22.801Z,13.33
2022-10-18T21:23:51.311Z,13.29
2022-10-18T21:26:21.322Z,13.23
2022-10-18T21:28:50.955Z,13.20
2022-10-18T21:31:21.308Z,13.20
2022-10-18T21:33:53.420Z,13.17
2022-10-18T21:36:23.367Z,13.15
2022-10-18T21:38:52.075Z,13.11
2022-10-18T21:41:21.664Z,13.08
2022-10-18T21:43:51.559Z,13.09
2022-10-18T21:46:21.033Z,13.03
2022-10-18T21:48:50.381Z,12.99
2022-10-18T21:51:19.784Z,12.93
2022-10-18T21:53:51.915Z,12.93
2022-10-18T21:56:21.871Z,12.91
2022-10-18T21:58:49.884Z,12.87
2022-10-18T22:01:19.587Z,12.90
2022-10-18T22:03:49.970Z,12.84
2022-10-18T22:06:18.198Z,12.83
2022-10-18T22:08:51.059Z,12.81
2022-10-18T22:11:20.874Z,12.77
2022-10-18T22:13:49.166Z,12.75
2022-10-18T22:16:18.323Z,12.73
2022-10-18T22:18:48.268Z,12.67
2022-10-18T22:21:18.789Z,12.62
2022-10-18T22:23:48.300Z,12.59
2022-10-18T22:26:21.679Z,12.64
2022-10-18T22:28:55.545Z,12.59
2022-10-18T22:31:26.652Z,12.51
2022-10-18T22:33:55.333Z,12.49
2022-10-18T22:36:23.855Z,12.49
2022-10-18T22:38:52.271Z,12.48
2022-10-18T22:41:21.668Z,12.46
2022-10-18T22:43:51.494Z,12.49
2022-10-18T22:46:20.043Z,12.52
2022-10-18T22:48:48.611Z,12.49
2022-10-18T22:51:17.016Z,12.46
2022-10-18T22:53:45.759Z,12.52
2022-10-18T22:56:17.065Z,12.54
2022-10-18T22:58:47.966Z,12.52
2022-10-18T23:01:17.941Z,12.47
2022-10-18T23:03:46.265Z,12.50
2022-10-18T23:06:22.248Z,12.50
2022-10-18T23:08:50.905Z,12.53
2022-10-18T23:11:19.183Z,12.51
2022-10-18T23:13:48.520Z,12.53
2022-10-18T23:16:16.693Z,12.55
2022-10-18T23:18:44.991Z,12.58
2022-10-18T23:21:14.666Z,12.61
2022-10-18T23:23:43.737Z,12.57
2022-10-18T23:26:13.862Z,12.57
2022-10-18T23:28:43.181Z,12.56
2022-10-18T23:31:14.848Z,12.56
2022-10-18T23:33:42.948Z,12.56
2022-10-18T23:36:11.514Z,12.52
2022-10-18T23:38:40.316Z,12.46
2022-10-18T23:41:10.723Z,12.48
2022-10-18T23:43:39.099Z,12.47
2022-10-18T23:46:07.889Z,12.43
2022-10-18T23:48:37.518Z,12.39
2022-10-18T23:51:06.744Z,12.35
2022-10-18T23:53:35.675Z,12.35
2022-10-18T23:56:05.400Z,12.31
2022-10-18T23:58:34.641Z,12.27
